createdAt,value
2023-03-08T00:00:08.152Z,0.80
2023-03-08T00:02:38.160Z,0.80
2023-03-08T00:05:07.016Z,0.90
2023-03-08T00:07:35.903Z,0.90
2023-03-08T00:10:04.343Z,1.00
2023-03-08T00:12:32.669Z,1.00
2023-03-08T00:15:00.884Z,1.00
2023-03-08T00:17:29.202Z,0.90
2023-03-08T00:19:58.925Z,0.90
2023-03-08T00:22:27.219Z,0.90
2023-03-08T00:24:55.471Z,1.00
2023-03-08T00:27:23.687Z,0.80
2023-03-08T00:29:51.950Z,0.90
2023-03-08T00:32:20.379Z,0.90
2023-03-08T00:34:48.791Z,1.00
2023-03-08T00:37:18.418Z,1.00
2023-03-08T00:39:46.824Z,1.00
2023-03-08T00:42:15.082Z,1.10
2023-03-08T00:44:43.522Z,1.10
2023-03-08T00:47:11.901Z,1.10
2023-03-08T00:49:40.422Z,1.10
2023-03-08T00:52:09.130Z,1.10
2023-03-08T00:54:40.002Z,1.00
2023-03-08T00:57:08.280Z,1.00
2023-03-08T00:59:36.581Z,1.00
2023-03-08T01:02:09.272Z,0.90
2023-03-08T01:04:41.884Z,1.00
2023-03-08T01:07:10.385Z,1.10
2023-03-08T01:09:40.045Z,1.10
2023-03-08T01:12:08.511Z,1.20
2023-03-08T01:14:36.906Z,1.10
2023-03-08T01:17:05.131Z,1.20
2023-03-08T01:19:33.299Z,1.00
2023-03-08T01:22:01.698Z,1.20
2023-03-08T01:24:29.958Z,1.00
2023-03-08T01:27:01.040Z,1.10
2023-03-08T01:29:29.560Z,1.10
2023-03-08T01:31:57.800Z,1.10
2023-03-08T01:34:26.059Z,1.10
2023-03-08T01:36:54.375Z,1.10
2023-03-08T01:39:22.601Z,1.10
2023-03-08T01:41:50.940Z,1.20
2023-03-08T01:44:22.888Z,1.00
2023-03-08T01:46:51.755Z,1.00
2023-03-08T01:49:21.761Z,1.00
2023-03-08T01:51:55.272Z,0.90
2023-03-08T01:54:27.844Z,0.90
2023-03-08T01:57:00.784Z,1.10
2023-03-08T01:59:33.430Z,0.90
2023-03-08T02:02:06.983Z,0.90
2023-03-08T02:04:35.393Z,0.90
2023-03-08T02:07:04.001Z,1.00
2023-03-08T02:09:32.893Z,0.90
2023-03-08T02:12:05.077Z,1.10
2023-03-08T02:14:34.919Z,1.00
2023-03-08T02:17:03.324Z,1.00
2023-03-08T02:19:40.168Z,1.00
2023-03-08T02:22:12.879Z,1.00
2023-03-08T02:24:42.790Z,0.90
2023-03-08T02:27:15.834Z,1.00
2023-03-08T02:29:44.158Z,1.10
2023-03-08T02:32:12.594Z,1.10
2023-03-08T02:34:40.930Z,1.00
2023-03-08T02:37:09.432Z,1.00
2023-03-08T02:39:37.684Z,0.80
2023-03-08T02:42:07.727Z,0.90
2023-03-08T02:44:36.056Z,1.10
2023-03-08T02:47:04.393Z,1.00
2023-03-08T02:49:32.646Z,0.90
2023-03-08T02:52:01.140Z,0.90
2023-03-08T02:54:29.454Z,0.90
2023-03-08T02:56:57.763Z,0.90
2023-03-08T02:59:27.839Z,0.90
2023-03-08T03:01:57.331Z,1.00
2023-03-08T03:04:25.555Z,1.10
2023-03-08T03:06:53.902Z,1.00
2023-03-08T03:09:22.198Z,0.90
2023-03-08T03:11:50.498Z,1.10
2023-03-08T03:14:18.971Z,1.10
2023-03-08T03:16:48.622Z,1.00
2023-03-08T03:19:16.826Z,0.90
2023-03-08T03:21:45.289Z,0.90
2023-03-08T03:24:14.381Z,1.10
2023-03-08T03:26:42.741Z,1.00
2023-03-08T03:29:11.128Z,1.10
2023-03-08T03:31:39.353Z,1.00
2023-03-08T03:34:09.447Z,0.90
2023-03-08T03:36:37.928Z,0.80
2023-03-08T03:39:06.134Z,0.90
2023-03-08T03:41:34.342Z,1.00
2023-03-08T03:44:02.747Z,1.00
2023-03-08T03:46:31.006Z,1.10
2023-03-08T03:48:59.578Z,1.10
2023-03-08T03:51:29.319Z,0.90
2023-03-08T03:53:58.627Z,0.80
2023-03-08T03:56:28.714Z,1.00
2023-03-08T03:59:00.951Z,1.00
2023-03-08T04:01:32.598Z,0.90
2023-03-08T04:04:01.073Z,1.00
2023-03-08T04:06:31.874Z,1.10
2023-03-08T04:09:01.749Z,1.00
2023-03-08T04:11:33.679Z,0.90
2023-03-08T04:14:01.964Z,0.90
2023-03-08T04:16:32.003Z,1.00
2023-03-08T04:19:01.743Z,0.90
2023-03-08T04:21:32.034Z,0.80
2023-03-08T04:24:00.987Z,0.80
2023-03-08T04:26:29.397Z,0.90
2023-03-08T04:28:58.063Z,0.70
2023-03-08T04:31:28.596Z,0.90
2023-03-08T04:33:58.484Z,0.60
2023-03-08T04:36:27.489Z,0.70
2023-03-08T04:38:57.404Z,0.60
2023-03-08T04:41:27.536Z,0.60
2023-03-08T04:43:57.668Z,0.70
2023-03-08T04:46:28.426Z,0.60
2023-03-08T04:48:59.224Z,0.70
2023-03-08T04:51:28.137Z,0.60
2023-03-08T04:54:00.540Z,0.60
2023-03-08T04:56:28.792Z,0.60
2023-03-08T04:58:57.040Z,0.70
2023-03-08T05:01:25.869Z,0.60
2023-03-08T05:03:54.732Z,0.80
2023-03-08T05:06:25.360Z,0.60
2023-03-08T05:08:54.025Z,0.50
2023-03-08T05:11:26.367Z,0.50
2023-03-08T05:13:59.412Z,0.50
2023-03-08T05:16:28.586Z,0.80
2023-03-08T05:18:58.962Z,0.60
2023-03-08T05:21:33.610Z,0.70
2023-03-08T05:27:00.208Z,0.70
2023-03-08T05:32:20.812Z,0.50
2023-03-08T05:37:57.511Z,0.70
2023-03-08T05:40:25.765Z,0.70
2023-03-08T05:42:56.031Z,0.80
2023-03-08T05:49:20.545Z,0.60
2023-03-08T05:55:12.005Z,0.60
2023-03-08T05:57:41.460Z,0.80
2023-03-08T06:00:12.871Z,0.70
2023-03-08T06:02:41.938Z,0.90
2023-03-08T06:05:10.826Z,0.90
2023-03-08T06:08:10.050Z,0.90
2023-03-08T06:13:39.879Z,0.70
2023-03-08T06:16:16.258Z,0.90
2023-03-08T06:22:04.719Z,0.80
2023-03-08T06:28:03.964Z,1.00
2023-03-08T06:30:48.698Z,0.80
2023-03-08T06:33:18.922Z,0.90
2023-03-08T06:36:03.197Z,0.80
2023-03-08T06:41:40.878Z,1.20
2023-03-08T06:44:27.246Z,1.20
2023-03-08T06:47:00.093Z,1.10
2023-03-08T06:49:30.742Z,1.10
2023-03-08T06:51:59.068Z,1.40
2023-03-08T06:54:27.294Z,1.20
2023-03-08T06:56:56.430Z,1.40
2023-03-08T06:59:26.993Z,1.30
2023-03-08T07:01:55.235Z,1.30
2023-03-08T07:04:23.524Z,1.20
2023-03-08T07:06:53.306Z,1.20
2023-03-08T07:09:21.619Z,1.10
2023-03-08T07:11:49.842Z,1.40
2023-03-08T07:14:28.657Z,1.40
2023-03-08T07:17:02.502Z,1.30
2023-03-08T07:19:32.276Z,1.20
2023-03-08T07:22:02.075Z,1.30
2023-03-08T07:28:55.618Z,1.40
2023-03-08T07:31:23.844Z,1.10
2023-03-08T07:33:52.375Z,1.20
2023-03-08T07:36:20.708Z,1.30
2023-03-08T07:38:50.499Z,1.20
2023-03-08T07:41:19.199Z,1.40
2023-03-08T07:43:47.444Z,1.20
2023-03-08T07:46:17.495Z,1.30
2023-03-08T07:48:45.760Z,1.30
2023-03-08T07:51:26.907Z,1.20
2023-03-08T07:53:56.489Z,1.30
2023-03-08T07:56:41.533Z,1.20
2023-03-08T07:59:17.604Z,1.40
2023-03-08T08:01:45.946Z,1.20
2023-03-08T08:04:24.061Z,1.50
2023-03-08T08:06:59.372Z,1.30
2023-03-08T08:09:29.014Z,1.40
2023-03-08T08:12:18.068Z,1.50
2023-03-08T08:14:48.239Z,1.60
2023-03-08T08:17:26.021Z,1.50
2023-03-08T08:20:15.468Z,1.50
2023-03-08T08:22:44.035Z,1.60
2023-03-08T08:25:24.284Z,1.60
2023-03-08T08:27:55.156Z,1.70
2023-03-08T08:30:25.392Z,1.50
2023-03-08T08:33:24.242Z,1.70
2023-03-08T08:35:54.270Z,1.50
2023-03-08T08:38:25.454Z,1.70
2023-03-08T08:44:23.862Z,1.80
2023-03-08T08:46:54.592Z,1.80
2023-03-08T08:49:24.558Z,1.70
2023-03-08T08:51:53.455Z,2.00
2023-03-08T08:54:21.772Z,1.80
2023-03-08T08:56:50.285Z,1.70
2023-03-08T08:59:18.570Z,1.60
2023-03-08T09:01:48.920Z,1.80
2023-03-08T09:04:18.001Z,1.70
2023-03-08T09:06:47.208Z,1.60
2023-03-08T09:09:21.587Z,1.50
2023-03-08T09:11:56.009Z,1.60
2023-03-08T09:14:26.565Z,1.70
2023-03-08T09:16:59.608Z,1.40
2023-03-08T09:19:51.941Z,1.60
2023-03-08T09:22:22.863Z,1.50
2023-03-08T09:24:58.717Z,1.40
2023-03-08T09:27:27.064Z,1.50
2023-03-08T09:29:55.477Z,1.30
2023-03-08T09:32:49.496Z,1.10
2023-03-08T09:35:43.690Z,1.20
2023-03-08T09:38:57.621Z,1.20
2023-03-08T09:41:54.277Z,1.20
2023-03-08T09:47:18.911Z,1.40
2023-03-08T09:49:55.773Z,1.40
2023-03-08T09:52:31.071Z,1.60
2023-03-08T09:55:05.328Z,1.30
2023-03-08T09:57:40.694Z,2.30
2023-03-08T10:00:22.894Z,2.30
2023-03-08T10:03:05.903Z,2.40
2023-03-08T10:05:43.909Z,3.20
2023-03-08T10:08:21.901Z,3.60
2023-03-08T10:10:56.887Z,3.70
2023-03-08T10:13:36.154Z,3.70
2023-03-08T10:16:25.517Z,4.00
2023-03-08T10:19:01.157Z,3.70
2023-03-08T10:21:39.446Z,3.60
2023-03-08T10:24:16.470Z,3.60
2023-03-08T10:26:46.467Z,3.50
2023-03-08T10:29:16.216Z,3.30
2023-03-08T10:31:48.770Z,3.30
2023-03-08T10:34:20.478Z,3.20
2023-03-08T10:36:56.581Z,3.20
2023-03-08T10:39:24.942Z,2.80
2023-03-08T10:42:06.359Z,3.00
2023-03-08T10:44:41.298Z,2.90
2023-03-08T10:47:21.376Z,2.80
2023-03-08T10:50:08.399Z,2.90
2023-03-08T10:52:38.715Z,2.90
2023-03-08T10:55:13.328Z,2.90
2023-03-08T10:57:45.717Z,2.90
2023-03-08T11:00:31.223Z,2.80
2023-03-08T11:03:15.667Z,2.80
2023-03-08T11:10:50.433Z,2.80
2023-03-08T11:23:46.113Z,2.80
2023-03-08T11:26:21.691Z,2.70
2023-03-08T11:29:12.982Z,2.80
2023-03-08T11:31:55.108Z,2.80
2023-03-08T11:35:43.310Z,2.80
2023-03-08T11:38:47.276Z,2.90
2023-03-08T11:41:27.521Z,3.10
2023-03-08T11:44:33.116Z,3.10
2023-03-08T11:47:40.404Z,3.20
2023-03-08T11:50:23.418Z,3.00
2023-03-08T11:57:00.447Z,3.10
2023-03-08T11:59:55.128Z,3.30
2023-03-08T12:02:34.689Z,3.20
2023-03-08T12:05:17.412Z,3.20
2023-03-08T12:07:55.080Z,3.20
2023-03-08T12:10:36.124Z,3.10
2023-03-08T12:13:17.292Z,3.20
2023-03-08T12:15:53.813Z,3.10
2023-03-08T12:18:29.907Z,3.00
2023-03-08T12:21:10.229Z,3.00
2023-03-08T12:23:52.212Z,3.20
2023-03-08T12:26:32.874Z,3.20
2023-03-08T12:29:19.474Z,3.20
2023-03-08T12:32:30.233Z,3.10
2023-03-08T12:35:55.757Z,3.30
2023-03-08T12:39:02.878Z,3.40
2023-03-08T12:41:40.870Z,3.50
2023-03-08T12:44:33.093Z,3.50
2023-03-08T12:47:37.038Z,3.60
2023-03-08T12:50:19.685Z,3.80
2023-03-08T12:53:18.214Z,4.00
2023-03-08T12:56:10.233Z,4.10
2023-03-08T12:58:55.668Z,3.80
2023-03-08T13:04:42.806Z,4.20
2023-03-08T13:07:33.115Z,4.00
2023-03-08T13:10:08.207Z,3.90
2023-03-08T13:12:44.001Z,3.70
2023-03-08T13:15:25.044Z,3.90
2023-03-08T13:18:06.407Z,3.80
2023-03-08T13:21:11.482Z,3.70
2023-03-08T13:24:14.396Z,3.90
2023-03-08T13:27:12.977Z,4.10
2023-03-08T13:33:14.994Z,4.00
2023-03-08T13:35:45.318Z,3.80
2023-03-08T13:38:28.716Z,4.00
2023-03-08T13:41:10.144Z,4.10
2023-03-08T13:43:38.486Z,3.80
2023-03-08T13:46:17.149Z,3.90
2023-03-08T13:49:15.666Z,3.80
2023-03-08T13:55:00.625Z,3.70
2023-03-08T13:57:33.721Z,3.90
2023-03-08T14:00:20.915Z,3.90
2023-03-08T14:02:49.501Z,3.80
2023-03-08T14:05:22.727Z,3.80
2023-03-08T14:08:03.293Z,3.80
2023-03-08T14:10:38.605Z,3.90
2023-03-08T14:13:15.916Z,3.90
2023-03-08T14:15:51.139Z,3.80
2023-03-08T14:18:23.401Z,3.80
2023-03-08T14:21:11.946Z,3.80
2023-03-08T14:23:44.642Z,3.80
2023-03-08T14:26:31.812Z,3.90
2023-03-08T14:29:17.250Z,4.10
2023-03-08T14:32:00.309Z,4.00
2023-03-08T14:34:36.559Z,4.00
2023-03-08T14:37:08.619Z,4.10
2023-03-08T14:39:38.704Z,4.00
2023-03-08T14:42:12.417Z,4.10
2023-03-08T14:44:42.886Z,3.90
2023-03-08T14:47:21.360Z,4.00
2023-03-08T14:49:57.539Z,4.10
2023-03-08T14:52:29.171Z,4.10
2023-03-08T14:54:57.802Z,4.10
2023-03-08T14:57:28.178Z,4.10
2023-03-08T15:00:14.890Z,4.30
2023-03-08T15:02:44.896Z,4.40
2023-03-08T15:08:54.613Z,4.30
2023-03-08T15:11:28.187Z,4.20
2023-03-08T15:13:56.530Z,4.30
2023-03-08T15:16:26.569Z,4.40
2023-03-08T15:18:55.880Z,4.10
2023-03-08T15:21:26.495Z,4.30
2023-03-08T15:24:44.410Z,4.20
2023-03-08T15:28:02.703Z,4.20
2023-03-08T15:30:32.350Z,4.30
2023-03-08T15:33:02.883Z,4.30
2023-03-08T15:35:31.319Z,4.20
2023-03-08T15:38:05.536Z,3.90
2023-03-08T15:40:35.717Z,4.00
2023-03-08T15:49:58.130Z,4.20
2023-03-08T15:52:30.465Z,4.30
2023-03-08T15:54:59.588Z,4.30
2023-03-08T15:57:29.051Z,4.30
2023-03-08T15:59:57.976Z,4.20
2023-03-08T16:02:26.460Z,4.20
2023-03-08T16:08:30.011Z,4.10
2023-03-08T16:11:04.118Z,4.00
2023-03-08T16:13:32.974Z,3.90
2023-03-08T16:16:01.655Z,4.00
2023-03-08T16:18:31.016Z,4.10
2023-03-08T16:21:01.169Z,4.10
2023-03-08T16:23:31.327Z,4.00
2023-03-08T16:26:14.122Z,3.90
2023-03-08T16:28:45.146Z,4.00
2023-03-08T16:31:13.962Z,4.00
2023-03-08T16:33:48.976Z,4.00
2023-03-08T16:36:19.538Z,3.90
2023-03-08T16:42:17.469Z,4.20
2023-03-08T16:44:51.426Z,4.30
2023-03-08T16:47:23.954Z,4.00
2023-03-08T16:50:07.151Z,4.20
2023-03-08T16:52:39.866Z,4.00
2023-03-08T16:55:09.398Z,4.20
2023-03-08T16:57:38.618Z,4.10
2023-03-08T17:00:12.627Z,4.10
2023-03-08T17:02:45.516Z,4.20
2023-03-08T17:05:14.198Z,4.20
2023-03-08T17:07:43.851Z,4.10
2023-03-08T17:10:13.173Z,4.40
2023-03-08T17:12:41.778Z,4.30
2023-03-08T17:18:10.127Z,4.30
2023-03-08T17:20:40.641Z,4.40
2023-03-08T17:31:06.802Z,4.30
2023-03-08T17:34:11.241Z,4.20
2023-03-08T17:36:41.389Z,4.10
2023-03-08T17:39:09.822Z,4.00
2023-03-08T17:41:39.696Z,4.10
2023-03-08T17:44:08.284Z,4.20
2023-03-08T17:46:50.659Z,4.10
2023-03-08T17:49:24.175Z,4.00
2023-03-08T17:52:17.109Z,3.80
2023-03-08T17:55:09.634Z,3.90
2023-03-08T17:57:41.302Z,3.90
2023-03-08T18:00:18.555Z,3.90
2023-03-08T18:02:57.948Z,3.90
2023-03-08T18:05:27.835Z,4.00
2023-03-08T18:07:56.670Z,4.00
2023-03-08T18:10:25.132Z,4.00
2023-03-08T18:12:53.348Z,3.90
2023-03-08T18:15:27.369Z,4.10
2023-03-08T18:18:04.891Z,4.10
2023-03-08T18:20:35.112Z,4.10
2023-03-08T18:23:04.942Z,4.00
2023-03-08T18:25:33.510Z,4.10
2023-03-08T18:28:02.130Z,3.90
2023-03-08T18:30:30.518Z,4.00
2023-03-08T18:33:00.968Z,4.00
2023-03-08T18:35:29.226Z,4.00
2023-03-08T18:38:09.113Z,3.90
2023-03-08T18:40:38.758Z,3.90
2023-03-08T18:43:14.589Z,4.10
2023-03-08T18:45:50.335Z,4.10
2023-03-08T18:48:26.126Z,4.20
2023-03-08T18:50:54.628Z,4.00
2023-03-08T18:53:24.757Z,4.20
2023-03-08T18:55:57.235Z,4.30
2023-03-08T18:58:27.028Z,4.20
2023-03-08T19:00:59.296Z,4.10
2023-03-08T19:03:46.765Z,4.30
2023-03-08T19:06:29.991Z,4.10
2023-03-08T19:09:01.330Z,4.40
2023-03-08T19:11:33.085Z,4.40
2023-03-08T19:14:10.446Z,4.30
2023-03-08T19:16:39.514Z,4.40
2023-03-08T19:19:11.731Z,4.40
2023-03-08T19:24:46.288Z,4.50
2023-03-08T19:27:17.792Z,4.60
2023-03-08T19:29:46.006Z,4.50
2023-03-08T19:32:15.934Z,4.60
2023-03-08T19:34:50.372Z,4.60
2023-03-08T19:37:22.014Z,4.70
2023-03-08T19:39:53.216Z,4.70
2023-03-08T19:42:22.834Z,4.70
2023-03-08T19:44:52.911Z,4.80
2023-03-08T19:47:22.805Z,4.80
2023-03-08T19:50:01.605Z,5.00
2023-03-08T19:52:30.062Z,4.80
2023-03-08T19:54:59.887Z,4.90
2023-03-08T19:57:29.402Z,4.80
2023-03-08T20:00:01.597Z,4.80
2023-03-08T20:05:53.729Z,4.80
2023-03-08T20:08:27.830Z,5.10
2023-03-08T20:10:56.732Z,5.00
2023-03-08T20:13:25.035Z,5.00
2023-03-08T20:15:53.368Z,5.00
2023-03-08T20:18:21.641Z,5.10
2023-03-08T20:20:54.059Z,5.20
2023-03-08T20:23:24.605Z,5.20
2023-03-08T20:25:52.930Z,5.20
2023-03-08T20:28:21.975Z,5.20
2023-03-08T20:30:54.827Z,5.30
2023-03-08T20:33:35.355Z,5.50
2023-03-08T20:36:05.922Z,5.50
2023-03-08T20:44:54.853Z,5.40
2023-03-08T20:47:23.289Z,5.50
2023-03-08T20:49:55.631Z,5.50
2023-03-08T20:52:28.056Z,5.40
2023-03-08T20:55:02.122Z,5.40
2023-03-08T20:57:34.582Z,5.40
2023-03-08T21:00:04.975Z,5.40
2023-03-08T21:02:33.394Z,5.50
2023-03-08T21:05:02.363Z,5.50
2023-03-08T21:07:31.872Z,5.40
2023-03-08T21:10:33.417Z,5.50
2023-03-08T21:13:03.544Z,5.70
2023-03-08T21:15:34.379Z,5.70
2023-03-08T21:18:03.944Z,5.60
2023-03-08T21:20:38.789Z,5.70
2023-03-08T21:23:07.150Z,5.60
2023-03-08T21:25:36.931Z,5.70
2023-03-08T21:28:08.690Z,5.60
2023-03-08T21:30:37.113Z,5.70
2023-03-08T21:33:05.856Z,5.60
2023-03-08T21:35:48.039Z,5.60
2023-03-08T21:41:39.041Z,5.70
2023-03-08T21:44:11.160Z,5.70
2023-03-08T21:46:41.192Z,5.70
2023-03-08T21:49:15.322Z,5.50
2023-03-08T21:51:44.009Z,5.60
2023-03-08T21:54:12.524Z,5.60
2023-03-08T21:56:41.122Z,5.60
2023-03-08T21:59:11.066Z,5.80
2023-03-08T22:01:40.078Z,5.60
2023-03-08T22:04:08.608Z,5.60
2023-03-08T22:06:36.964Z,5.80
2023-03-08T22:09:08.677Z,5.60
2023-03-08T22:15:21.065Z,5.80
2023-03-08T22:17:52.804Z,5.90
2023-03-08T22:20:21.140Z,5.90
2023-03-08T22:22:49.689Z,6.00
2023-03-08T22:25:18.423Z,5.80
2023-03-08T22:27:46.758Z,5.90
2023-03-08T22:30:24.007Z,6.00
2023-03-08T22:32:53.851Z,6.00
2023-03-08T22:35:22.469Z,5.90
2023-03-08T22:37:56.114Z,5.90
2023-03-08T22:40:24.493Z,6.10
2023-03-08T22:42:57.046Z,6.10
2023-03-08T22:49:40.867Z,6.20
2023-03-08T22:52:11.815Z,5.90
2023-03-08T22:54:40.084Z,5.80
2023-03-08T22:57:08.535Z,6.00
2023-03-08T22:59:36.912Z,6.00
2023-03-08T23:02:09.450Z,5.80
2023-03-08T23:04:37.809Z,6.00
2023-03-08T23:07:06.524Z,5.80
2023-03-08T23:09:36.819Z,5.80
2023-03-08T23:12:13.021Z,6.00
2023-03-08T23:14:45.301Z,5.80
2023-03-08T23:17:36.315Z,6.00
2023-03-08T23:20:08.834Z,5.90
2023-03-08T23:22:37.092Z,6.00
2023-03-08T23:25:10.606Z,6.20
2023-03-08T23:27:38.862Z,6.10
2023-03-08T23:30:09.244Z,6.40
2023-03-08T23:32:37.501Z,6.40
2023-03-08T23:35:06.420Z,6.20
2023-03-08T23:37:34.969Z,6.20
2023-03-08T23:40:04.829Z,6.50
2023-03-08T23:42:35.483Z,6.60
2023-03-08T23:45:03.910Z,6.40
2023-03-08T23:47:32.158Z,6.30
2023-03-08T23:50:00.801Z,6.50
2023-03-08T23:52:29.151Z,6.40
2023-03-08T23:54:57.435Z,6.60
2023-03-08T23:57:26.018Z,6.40
2023-03-08T23:59:55.705Z,6.50
